createdAt,value
2022-08-02T00:01:58.947Z,48.59
2022-08-02T00:04:27.804Z,48.51
2022-08-02T00:06:56.832Z,48.80
2022-08-02T00:09:25.623Z,48.35
2022-08-02T00:11:54.492Z,48.87
2022-08-02T00:14:23.448Z,48.97
2022-08-02T00:16:52.209Z,48.95
2022-08-02T00:19:21.002Z,48.90
2022-08-02T00:21:49.788Z,48.92
2022-08-02T00:24:28.945Z,48.95
2022-08-02T00:26:58.738Z,49.03
2022-08-02T00:29:27.565Z,49.33
2022-08-02T00:31:56.805Z,49.45
2022-08-02T00:34:28.347Z,49.66
2022-08-02T00:36:59.952Z,49.68
2022-08-02T00:39:35.325Z,49.89
2022-08-02T00:42:05.900Z,50.11
2022-08-02T00:44:34.783Z,50.12
2022-08-02T00:47:03.634Z,50.34
2022-08-02T00:49:32.985Z,50.42
2022-08-02T00:52:02.124Z,50.38
2022-08-02T00:54:30.957Z,50.58
2022-08-02T00:56:59.815Z,50.57
2022-08-02T00:59:28.671Z,50.69
2022-08-02T01:01:58.441Z,50.90
2022-08-02T01:04:31.392Z,50.90
2022-08-02T01:07:03.425Z,50.92
2022-08-02T01:09:43.119Z,51.10
2022-08-02T01:12:13.664Z,51.05
2022-08-02T01:14:43.911Z,51.29
2022-08-02T01:17:18.009Z,51.24
2022-08-02T01:19:54.072Z,51.23
2022-08-02T01:23:02.713Z,51.39
2022-08-02T01:26:00.876Z,51.58
2022-08-02T01:28:39.007Z,51.66
2022-08-02T01:31:16.428Z,51.91
2022-08-02T01:33:51.811Z,51.90
2022-08-02T01:36:20.251Z,51.96
2022-08-02T01:38:52.876Z,52.04
2022-08-02T01:41:24.406Z,52.09
2022-08-02T01:43:56.811Z,52.16
2022-08-02T01:46:27.408Z,52.22
2022-08-02T01:48:58.485Z,52.28
2022-08-02T01:51:47.094Z,52.30
2022-08-02T01:54:18.955Z,52.50
2022-08-02T01:56:49.672Z,52.45
2022-08-02T01:59:22.368Z,52.57
2022-08-02T02:01:54.020Z,52.65
2022-08-02T02:04:25.059Z,52.57
2022-08-02T02:06:56.104Z,52.76
2022-08-02T02:09:28.804Z,52.98
2022-08-02T02:12:09.554Z,53.07
2022-08-02T02:14:49.263Z,53.21
2022-08-02T02:17:50.660Z,53.22
2022-08-02T02:20:14.748Z,53.12
2022-08-02T02:22:44.455Z,53.36
2022-08-02T02:25:15.505Z,53.23
2022-08-02T02:27:50.039Z,53.36
2022-08-02T02:30:20.053Z,53.53
2022-08-02T02:32:53.610Z,53.56
2022-08-02T02:35:23.268Z,53.62
2022-08-02T02:37:54.890Z,53.73
2022-08-02T02:40:27.471Z,53.94
2022-08-02T02:42:59.236Z,53.91
2022-08-02T02:45:30.638Z,54.04
2022-08-02T02:48:02.333Z,54.09
2022-08-02T02:50:32.224Z,54.30
2022-08-02T02:53:02.379Z,54.45
2022-08-02T02:55:32.469Z,54.48
2022-08-02T02:58:01.967Z,54.63
2022-08-02T03:00:49.839Z,54.55
2022-08-02T03:03:19.693Z,54.60
2022-08-02T03:05:50.565Z,54.55
2022-08-02T03:08:19.493Z,54.75
2022-08-02T03:10:48.779Z,54.57
2022-08-02T03:13:19.002Z,54.69
2022-08-02T03:15:48.527Z,54.73
2022-08-02T03:18:32.083Z,54.83
2022-08-02T03:21:03.866Z,54.75
2022-08-02T03:23:33.143Z,54.89
2022-08-02T03:26:02.094Z,54.99
2022-08-02T03:28:31.605Z,55.08
2022-08-02T03:31:01.384Z,55.18
2022-08-02T03:33:31.640Z,55.11
2022-08-02T03:36:08.412Z,55.23
2022-08-02T03:38:38.063Z,55.34
2022-08-02T03:41:08.324Z,55.57
2022-08-02T03:43:38.649Z,55.43
2022-08-02T03:46:09.619Z,55.58
2022-08-02T03:48:39.721Z,55.51
2022-08-02T03:51:08.903Z,55.43
2022-08-02T03:53:39.015Z,55.38
2022-08-02T03:56:09.439Z,55.53
2022-08-02T03:58:38.292Z,55.39
2022-08-02T04:01:07.293Z,55.47
2022-08-02T04:03:36.368Z,55.56
2022-08-02T04:06:05.485Z,55.57
2022-08-02T04:08:38.128Z,55.67
2022-08-02T04:11:24.956Z,55.71
2022-08-02T04:13:56.866Z,55.84
2022-08-02T04:16:34.516Z,55.91
2022-08-02T04:19:08.257Z,55.84
2022-08-02T04:21:41.493Z,55.94
2022-08-02T04:24:25.207Z,55.94
2022-08-02T04:26:57.895Z,55.82
2022-08-02T04:29:36.753Z,55.93
2022-08-02T04:32:07.070Z,55.93
2022-08-02T04:34:35.879Z,55.95
2022-08-02T04:37:05.637Z,55.86
2022-08-02T04:39:35.401Z,55.89
2022-08-02T04:42:04.854Z,55.89
2022-08-02T04:44:34.363Z,55.98
2022-08-02T04:47:06.837Z,55.88
2022-08-02T04:49:35.986Z,56.05
2022-08-02T04:52:05.756Z,55.79
2022-08-02T04:54:34.810Z,55.86
2022-08-02T04:57:24.756Z,55.89
2022-08-02T04:59:54.727Z,56.00
2022-08-02T05:02:23.797Z,55.89
2022-08-02T05:04:52.589Z,56.00
2022-08-02T05:07:21.382Z,56.00
2022-08-02T05:09:50.163Z,56.00
2022-08-02T05:12:21.518Z,56.05
2022-08-02T05:14:50.425Z,56.11
2022-08-02T05:17:19.256Z,56.11
2022-08-02T05:19:48.435Z,56.02
2022-08-02T05:22:17.341Z,56.18
2022-08-02T05:24:46.123Z,56.14
2022-08-02T05:27:17.336Z,56.08
2022-08-02T05:29:53.557Z,56.13
2022-08-02T05:32:25.931Z,56.03
2022-08-02T05:34:54.827Z,55.90
2022-08-02T05:37:23.667Z,55.92
2022-08-02T05:39:55.827Z,55.75
2022-08-02T05:42:25.170Z,55.81
2022-08-02T05:44:55.202Z,55.74
2022-08-02T05:47:23.986Z,55.71
2022-08-02T05:49:52.774Z,55.58
2022-08-02T05:52:24.735Z,55.41
2022-08-02T05:55:03.684Z,55.58
2022-08-02T05:57:43.711Z,55.48
2022-08-02T06:00:15.285Z,55.23
2022-08-02T06:03:16.589Z,55.09
2022-08-02T06:05:53.563Z,55.17
2022-08-02T06:08:30.996Z,54.90
2022-08-02T06:11:02.528Z,55.13
2022-08-02T06:13:32.517Z,55.05
2022-08-02T06:16:02.426Z,54.78
2022-08-02T06:18:33.492Z,54.64
2022-08-02T06:22:31.597Z,54.57
2022-08-02T06:23:58.854Z,54.73
2022-08-02T06:26:29.038Z,54.55
2022-08-02T06:28:59.030Z,54.39
2022-08-02T06:31:27.914Z,54.34
2022-08-02T06:33:57.014Z,54.18
2022-08-02T06:36:35.618Z,54.23
2022-08-02T06:39:08.672Z,54.08
2022-08-02T06:41:41.711Z,54.09
2022-08-02T06:44:45.082Z,54.09
2022-08-02T06:47:11.256Z,53.84
2022-08-02T06:49:52.789Z,53.77
2022-08-02T06:52:29.723Z,53.66
2022-08-02T06:55:00.721Z,53.40
2022-08-02T06:57:30.808Z,53.30
2022-08-02T07:00:01.109Z,53.15
2022-08-02T07:02:30.811Z,53.28
2022-08-02T07:05:00.091Z,52.96
2022-08-02T07:07:29.103Z,52.89
2022-08-02T07:10:01.450Z,52.66
2022-08-02T07:12:32.956Z,52.12
2022-08-02T07:15:04.074Z,51.87
2022-08-02T07:17:33.539Z,51.78
2022-08-02T07:20:03.141Z,51.28
2022-08-02T07:22:32.270Z,51.06
2022-08-02T07:25:01.732Z,50.64
2022-08-02T07:27:30.851Z,50.36
2022-08-02T07:30:00.488Z,49.85
2022-08-02T07:32:31.736Z,49.98
2022-08-02T07:35:06.645Z,49.59
2022-08-02T07:37:55.660Z,49.58
2022-08-02T07:40:27.322Z,49.17
2022-08-02T07:43:02.741Z,48.91
2022-08-02T07:45:36.114Z,48.98
2022-08-02T07:48:14.524Z,48.95
2022-08-02T07:50:43.429Z,48.86
2022-08-02T07:53:12.216Z,48.52
2022-08-02T07:55:41.157Z,48.38
2022-08-02T07:58:13.084Z,48.04
2022-08-02T08:00:44.304Z,47.71
2022-08-02T08:03:13.859Z,47.48
2022-08-02T08:05:42.775Z,47.44
2022-08-02T08:08:16.884Z,47.23
2022-08-02T08:10:46.948Z,47.09
2022-08-02T08:13:16.130Z,46.55
2022-08-02T08:15:52.182Z,46.30
2022-08-02T08:18:22.653Z,46.46
2022-08-02T08:20:51.923Z,45.90
2022-08-02T08:23:21.037Z,45.89
2022-08-02T08:25:50.129Z,45.63
2022-08-02T08:28:19.021Z,45.33
2022-08-02T08:30:47.832Z,44.86
2022-08-02T08:33:16.646Z,44.46
2022-08-02T08:35:45.531Z,44.44
2022-08-02T08:38:15.098Z,44.24
2022-08-02T08:40:44.486Z,43.99
2022-08-02T08:43:14.223Z,43.85
2022-08-02T08:45:44.351Z,44.10
2022-08-02T08:48:21.815Z,43.70
2022-08-02T08:51:08.784Z,43.06
2022-08-02T08:53:43.273Z,43.04
2022-08-02T08:56:16.257Z,42.56
2022-08-02T08:58:47.279Z,42.67
2022-08-02T09:01:17.007Z,42.57
2022-08-02T09:03:46.393Z,42.45
2022-08-02T09:06:15.403Z,42.08
2022-08-02T09:08:44.267Z,41.86
2022-08-02T09:11:18.695Z,41.65
2022-08-02T09:13:52.211Z,41.21
2022-08-02T09:16:32.475Z,41.09
2022-08-02T09:19:02.382Z,40.73
2022-08-02T09:21:39.701Z,40.81
2022-08-02T09:24:17.844Z,40.55
2022-08-02T09:26:47.784Z,40.55
2022-08-02T09:29:18.009Z,40.53
2022-08-02T09:31:50.946Z,40.36
2022-08-02T09:34:21.820Z,40.21
2022-08-02T09:36:54.673Z,39.96
2022-08-02T09:39:25.832Z,39.56
2022-08-02T09:42:10.035Z,39.77
2022-08-02T09:44:39.328Z,39.46
2022-08-02T09:47:16.531Z,39.14
2022-08-02T09:49:52.652Z,39.30
2022-08-02T09:52:43.322Z,39.07
2022-08-02T09:55:13.759Z,38.53
2022-08-02T09:57:42.749Z,38.34
2022-08-02T10:00:16.165Z,38.24
2022-08-02T10:03:09.164Z,37.81
2022-08-02T10:05:56.242Z,37.41
2022-08-02T10:08:33.649Z,37.14
2022-08-02T10:11:03.165Z,36.84
2022-08-02T10:13:33.827Z,36.48
2022-08-02T10:16:05.611Z,36.39
2022-08-02T10:18:39.889Z,36.15
2022-08-02T10:21:15.133Z,36.11
2022-08-02T10:23:46.324Z,35.32
2022-08-02T10:26:17.977Z,35.12
2022-08-02T10:28:49.404Z,35.02
2022-08-02T10:31:25.363Z,34.64
2022-08-02T10:33:57.019Z,34.41
2022-08-02T10:36:27.174Z,33.66
2022-08-02T10:38:58.446Z,33.57
2022-08-02T10:41:44.720Z,33.72
2022-08-02T10:44:29.273Z,33.62
2022-08-02T10:47:26.195Z,33.75
2022-08-02T10:49:56.703Z,33.35
2022-08-02T10:52:26.201Z,32.62
2022-08-02T10:55:00.020Z,32.44
2022-08-02T10:57:30.783Z,32.62
2022-08-02T11:00:03.140Z,32.68
2022-08-02T11:02:41.201Z,32.51
2022-08-02T11:05:13.203Z,32.58
2022-08-02T11:07:47.630Z,32.36
2022-08-02T11:10:40.047Z,32.40
2022-08-02T11:13:11.794Z,32.68
2022-08-02T11:16:02.040Z,32.70
2022-08-02T11:19:03.646Z,32.70
2022-08-02T11:21:36.268Z,32.66
2022-08-02T11:24:28.175Z,32.57
2022-08-02T11:26:58.932Z,33.09
2022-08-02T11:29:38.107Z,32.73
2022-08-02T11:32:15.273Z,33.07
2022-08-02T11:34:46.281Z,32.68
2022-08-02T11:37:28.778Z,32.53
2022-08-02T11:39:57.654Z,32.79
2022-08-02T11:42:33.543Z,33.00
2022-08-02T11:45:02.670Z,33.11
2022-08-02T11:47:31.650Z,32.93
2022-08-02T11:50:08.170Z,32.73
2022-08-02T11:52:38.007Z,32.86
2022-08-02T11:55:09.507Z,33.06
2022-08-02T11:58:04.091Z,33.20
2022-08-02T12:00:30.792Z,32.95
2022-08-02T12:03:00.396Z,32.90
2022-08-02T12:06:02.894Z,32.82
2022-08-02T12:08:25.148Z,32.67
2022-08-02T12:10:54.294Z,32.90
2022-08-02T12:13:23.153Z,32.73
2022-08-02T12:15:52.108Z,33.11
2022-08-02T12:18:40.695Z,32.87
2022-08-02T12:21:24.292Z,32.76
2022-08-02T12:24:00.094Z,32.72
2022-08-02T12:26:30.252Z,32.82
2022-08-02T12:29:00.870Z,32.84
2022-08-02T12:31:56.008Z,33.16
2022-08-02T12:34:31.745Z,33.10
2022-08-02T12:37:04.479Z,32.98
2022-08-02T12:39:39.567Z,33.13
2022-08-02T12:42:08.569Z,33.09
2022-08-02T12:44:39.097Z,32.94
2022-08-02T12:47:09.527Z,32.85
2022-08-02T12:49:38.403Z,33.07
2022-08-02T12:52:20.908Z,32.90
2022-08-02T12:54:50.323Z,33.07
2022-08-02T12:57:20.136Z,33.23
2022-08-02T12:59:53.399Z,33.00
2022-08-02T13:02:22.330Z,32.94
2022-08-02T13:04:51.265Z,32.95
2022-08-02T13:07:20.632Z,33.22
2022-08-02T13:09:49.611Z,33.08
2022-08-02T13:12:18.553Z,33.06
2022-08-02T13:14:47.600Z,33.19
2022-08-02T13:17:16.395Z,33.23
2022-08-02T13:19:45.215Z,33.11
2022-08-02T13:22:20.439Z,32.81
2022-08-02T13:24:55.550Z,33.09
2022-08-02T13:27:26.402Z,33.25
2022-08-02T13:29:57.095Z,33.12
2022-08-02T13:32:28.383Z,32.91
2022-08-02T13:34:58.051Z,33.07
2022-08-02T13:37:26.844Z,32.88
2022-08-02T13:40:19.123Z,32.88
2022-08-02T13:42:44.673Z,33.18
2022-08-02T13:45:14.291Z,32.98
2022-08-02T13:48:04.481Z,32.66
2022-08-02T13:50:33.507Z,32.82
2022-08-02T13:53:02.345Z,32.91
2022-08-02T13:55:31.256Z,32.86
2022-08-02T13:58:00.181Z,32.98
2022-08-02T14:00:34.357Z,32.88
2022-08-02T14:03:06.889Z,32.96
2022-08-02T14:05:48.451Z,32.91
2022-08-02T14:08:18.999Z,33.01
2022-08-02T14:10:49.295Z,32.85
2022-08-02T14:13:19.051Z,32.84
2022-08-02T14:15:49.770Z,33.07
2022-08-02T14:18:18.738Z,33.06
2022-08-02T14:20:47.754Z,32.78
2022-08-02T14:23:16.638Z,32.90
2022-08-02T14:25:45.452Z,32.89
2022-08-02T14:28:14.272Z,32.87
2022-08-02T14:30:43.185Z,32.71
2022-08-02T14:33:12.001Z,32.80
2022-08-02T14:35:40.836Z,32.67
2022-08-02T14:38:09.676Z,32.69
2022-08-02T14:40:38.596Z,32.36
2022-08-02T14:43:08.278Z,32.41
2022-08-02T14:45:40.844Z,32.61
2022-08-02T14:48:12.124Z,32.46
2022-08-02T14:50:41.247Z,32.54
2022-08-02T14:53:12.652Z,32.68
2022-08-02T14:55:42.832Z,32.49
2022-08-02T14:58:12.180Z,32.59
2022-08-02T15:00:42.120Z,32.73
2022-08-02T15:03:14.330Z,32.77
2022-08-02T15:05:43.250Z,32.68
2022-08-02T15:08:12.108Z,32.66
2022-08-02T15:10:46.101Z,32.44
2022-08-02T15:13:15.338Z,32.41
2022-08-02T15:15:44.238Z,32.69
2022-08-02T15:18:14.144Z,32.61
2022-08-02T15:20:46.257Z,32.52
2022-08-02T15:23:24.725Z,32.66
2022-08-02T15:26:03.760Z,32.41
2022-08-02T15:28:32.588Z,32.33
2022-08-02T15:31:01.569Z,32.10
2022-08-02T15:33:30.431Z,32.41
2022-08-02T15:35:59.499Z,32.21
2022-08-02T15:38:28.335Z,32.29
2022-08-02T15:40:57.170Z,31.98
2022-08-02T15:43:26.079Z,32.01
2022-08-02T15:45:54.923Z,31.86
2022-08-02T15:48:24.091Z,32.21
2022-08-02T15:50:52.907Z,32.16
2022-08-02T15:53:21.864Z,32.21
2022-08-02T15:56:04.343Z,32.16
2022-08-02T15:58:44.239Z,32.28
2022-08-02T16:01:13.653Z,32.29
2022-08-02T16:03:42.604Z,31.82
2022-08-02T16:06:12.197Z,32.34
2022-08-02T16:08:53.815Z,32.27
2022-08-02T16:11:23.919Z,32.43
2022-08-02T16:13:56.177Z,32.44
2022-08-02T16:16:27.332Z,32.23
2022-08-02T16:18:56.847Z,32.16
2022-08-02T16:21:25.800Z,32.13
2022-08-02T16:23:58.977Z,32.08
2022-08-02T16:26:33.659Z,32.29
2022-08-02T16:29:04.510Z,32.38
2022-08-02T16:31:33.442Z,32.08
2022-08-02T16:34:02.265Z,32.06
2022-08-02T16:36:31.076Z,32.27
2022-08-02T16:38:59.950Z,32.29
2022-08-02T16:41:50.888Z,32.29
2022-08-02T16:44:17.597Z,32.30
2022-08-02T16:46:46.434Z,32.26
2022-08-02T16:50:05.902Z,32.25
2022-08-02T16:52:09.439Z,32.42
2022-08-02T16:54:38.610Z,32.42
2022-08-02T16:57:07.421Z,32.61
2022-08-02T16:59:42.624Z,32.63
2022-08-02T17:02:18.175Z,32.73
2022-08-02T17:05:01.418Z,32.63
2022-08-02T17:08:15.140Z,32.86
2022-08-02T17:10:19.331Z,32.78
2022-08-02T17:12:51.186Z,32.69
2022-08-02T17:15:53.467Z,32.85
2022-08-02T17:18:09.739Z,32.97
2022-08-02T17:20:38.645Z,32.84
2022-08-02T17:23:09.032Z,32.98
2022-08-02T17:25:45.287Z,33.13
2022-08-02T17:28:21.793Z,33.05
2022-08-02T17:31:00.937Z,32.82
2022-08-02T17:33:29.775Z,33.02
2022-08-02T17:36:00.935Z,33.25
2022-08-02T17:38:31.668Z,33.23
2022-08-02T17:41:00.574Z,33.34
2022-08-02T17:43:33.036Z,33.42
2022-08-02T17:46:05.231Z,33.42
2022-08-02T17:48:54.995Z,33.64
2022-08-02T17:52:15.418Z,33.69
2022-08-02T17:54:13.980Z,34.00
2022-08-02T17:56:42.994Z,34.07
2022-08-02T17:59:20.176Z,34.12
2022-08-02T18:01:52.862Z,34.30
2022-08-02T18:04:26.876Z,34.50
2022-08-02T18:06:58.486Z,34.61
2022-08-02T18:09:28.283Z,34.86
2022-08-02T18:11:57.917Z,35.12
2022-08-02T18:14:26.810Z,35.04
2022-08-02T18:16:55.786Z,35.25
2022-08-02T18:19:42.204Z,35.29
2022-08-02T18:22:12.656Z,35.49
2022-08-02T18:24:44.193Z,35.63
2022-08-02T18:27:13.828Z,35.81
2022-08-02T18:29:42.595Z,35.88
2022-08-02T18:32:12.198Z,35.96
2022-08-02T18:34:47.691Z,36.17
2022-08-02T18:37:17.748Z,36.26
2022-08-02T18:39:51.778Z,36.26
2022-08-02T18:42:20.911Z,36.48
2022-08-02T18:44:50.164Z,36.56
2022-08-02T18:47:19.012Z,36.68
2022-08-02T18:49:51.517Z,36.89
2022-08-02T18:52:31.419Z,37.00
2022-08-02T18:55:00.621Z,37.16
2022-08-02T18:58:18.223Z,37.09
2022-08-02T19:00:20.517Z,37.22
2022-08-02T19:02:54.723Z,37.44
2022-08-02T19:05:53.331Z,37.52
2022-08-02T19:08:13.971Z,37.66
2022-08-02T19:10:49.192Z,37.76
2022-08-02T19:13:18.984Z,38.18
2022-08-02T19:15:47.936Z,38.18
2022-08-02T19:18:16.795Z,38.06
2022-08-02T19:20:48.234Z,38.48
2022-08-02T19:23:17.412Z,38.43
2022-08-02T19:25:54.624Z,38.75
2022-08-02T19:28:26.414Z,38.72
2022-08-02T19:30:56.218Z,38.78
2022-08-02T19:34:06.074Z,39.03
2022-08-02T19:36:17.147Z,39.01
2022-08-02T19:38:46.152Z,39.21
2022-08-02T19:41:18.354Z,39.38
2022-08-02T19:44:22.840Z,39.41
2022-08-02T19:49:39.606Z,39.89
2022-08-02T19:52:22.262Z,40.05
2022-08-02T19:54:54.639Z,40.26
2022-08-02T19:57:26.090Z,40.17
2022-08-02T19:59:57.435Z,40.33
2022-08-02T20:02:27.168Z,40.44
2022-08-02T20:04:58.268Z,40.77
2022-08-02T20:07:55.274Z,40.74
2022-08-02T20:10:24.596Z,40.78
2022-08-02T20:12:53.904Z,41.02
2022-08-02T20:15:23.452Z,40.99
2022-08-02T20:18:12.260Z,40.95
2022-08-02T20:20:43.578Z,41.39
2022-08-02T20:23:32.424Z,41.32
2022-08-02T20:26:02.528Z,41.29
2022-08-02T20:28:31.962Z,41.63
2022-08-02T20:31:07.177Z,41.91
2022-08-02T20:33:56.248Z,41.64
2022-08-02T20:36:25.881Z,41.79
2022-08-02T20:38:55.139Z,41.93
2022-08-02T20:41:36.728Z,42.00
2022-08-02T20:44:15.831Z,42.11
2022-08-02T20:46:59.420Z,42.04
2022-08-02T20:49:41.149Z,42.26
2022-08-02T20:55:01.084Z,42.12
2022-08-02T20:57:36.194Z,42.48
2022-08-02T21:00:19.013Z,42.85
2022-08-02T21:02:49.935Z,42.81
2022-08-02T21:05:18.771Z,42.95
2022-08-02T21:07:53.442Z,42.96
2022-08-02T21:10:24.023Z,43.28
2022-08-02T21:12:53.463Z,43.38
2022-08-02T21:15:25.384Z,43.57
2022-08-02T21:17:58.138Z,43.57
2022-08-02T21:20:35.028Z,43.75
2022-08-02T21:23:04.090Z,43.94
2022-08-02T21:25:42.448Z,44.17
2022-08-02T21:28:20.113Z,44.26
2022-08-02T21:30:52.314Z,44.03
2022-08-02T21:33:23.604Z,44.18
2022-08-02T21:35:53.487Z,44.40
2022-08-02T21:38:35.434Z,44.37
2022-08-02T21:41:05.696Z,44.63
2022-08-02T21:43:40.194Z,44.64
2022-08-02T21:46:09.286Z,44.44
2022-08-02T21:48:43.438Z,44.75
2022-08-02T21:51:15.839Z,44.71
2022-08-02T21:54:17.696Z,44.79
2022-08-02T21:56:34.131Z,44.97
2022-08-02T21:59:14.838Z,44.70
2022-08-02T22:01:53.067Z,44.97
2022-08-02T22:04:22.750Z,44.97
2022-08-02T22:06:51.671Z,44.82
2022-08-02T22:09:42.243Z,44.99
2022-08-02T22:12:16.493Z,45.00
2022-08-02T22:14:49.616Z,45.00
2022-08-02T22:17:51.160Z,44.94
2022-08-02T22:20:22.911Z,45.31
2022-08-02T22:22:52.598Z,45.26
2022-08-02T22:25:36.173Z,45.48
2022-08-02T22:28:36.769Z,45.26
2022-08-02T22:31:03.763Z,45.50
2022-08-02T22:34:00.233Z,45.59
2022-08-02T22:36:31.700Z,45.88
2022-08-02T22:39:01.856Z,45.77
2022-08-02T22:42:00.121Z,45.68
2022-08-02T22:44:20.117Z,45.73
2022-08-02T22:49:44.608Z,46.05
2022-08-02T22:52:22.086Z,46.07
2022-08-02T22:54:51.770Z,46.09
2022-08-02T22:57:30.471Z,46.31
2022-08-02T22:59:05.292Z,42.41
2022-08-02T22:59:06.305Z,39.75
2022-08-02T23:00:00.647Z,46.50
2022-08-02T23:02:30.158Z,46.34
2022-08-02T23:04:59.189Z,46.28
2022-08-02T23:07:28.223Z,46.42
2022-08-02T23:10:07.352Z,46.23
2022-08-02T23:12:36.208Z,46.61
2022-08-02T23:15:06.451Z,46.56
2022-08-02T23:18:07.820Z,46.48
2022-08-02T23:20:36.778Z,46.90
2022-08-02T23:23:11.564Z,46.96
2022-08-02T23:25:40.843Z,47.00
2022-08-02T23:28:09.662Z,47.09
2022-08-02T23:30:38.460Z,47.12
2022-08-02T23:33:07.282Z,47.18
2022-08-02T23:35:36.111Z,47.29
2022-08-02T23:38:04.940Z,47.42
2022-08-02T23:40:40.069Z,47.40
2022-08-02T23:43:14.271Z,47.42
2022-08-02T23:45:45.170Z,47.54
2022-08-02T23:48:14.063Z,47.61
2022-08-02T23:50:42.862Z,47.67
2022-08-02T23:53:11.645Z,47.74
2022-08-02T23:55:40.556Z,47.71
2022-08-02T23:58:09.365Z,47.86
